Time;durP1;ratioP1;P1;durP2;ratioP2;P2;SDS_P1;SDS_P2;PMS_P1;PMS_P2;Temp;Humidity;BMP_temperature;BMP_pressure;BME280_temperature;BME280_humidity;BME280_pressure;Samples;Min_cycle;Max_cycle;Signal;HPM_P1;HPM_P2
2023/04/30 00:01:41;;;;;;;36.75;16.75;;;;;;;8.57;100.00;102306.34;5054482;28;20029;-44
2023/04/30 00:04:07;;;;;;;32.45;16.33;;;;;;;8.55;100.00;102310.97;5066934;28;20029;-49
2023/04/30 00:06:32;;;;;;;39.97;18.20;;;;;;;8.54;100.00;102311.13;5063078;28;20115;-45
2023/04/30 00:08:57;;;;;;;33.47;16.67;;;;;;;8.51;100.00;102322.97;5070649;28;20069;-46
2023/04/30 00:11:24;;;;;;;40.35;18.13;;;;;;;8.52;100.00;102324.66;5071883;28;20465;-46
2023/04/30 00:13:50;;;;;;;35.70;17.88;;;;;;;8.51;100.00;102317.63;5071067;28;20055;-44
2023/04/30 00:16:16;;;;;;;32.90;17.83;;;;;;;8.52;100.00;102319.31;5070781;28;20115;-45
2023/04/30 00:18:41;;;;;;;35.08;17.55;;;;;;;8.57;100.00;102327.81;5063636;28;20104;-46
2023/04/30 00:21:07;;;;;;;37.97;17.38;;;;;;;8.54;100.00;102333.44;5057008;28;20478;-47
2023/04/30 00:23:32;;;;;;;36.72;17.92;;;;;;;8.57;100.00;102327.81;5066298;28;20035;-48
2023/04/30 00:25:58;;;;;;;44.50;19.15;;;;;;;8.51;100.00;102327.50;5056000;28;20033;-47
2023/04/30 00:28:24;;;;;;;39.00;18.33;;;;;;;8.45;100.00;102331.56;5056713;28;20029;-45
2023/04/30 00:30:49;;;;;;;43.28;18.30;;;;;;;8.43;100.00;102325.47;5055578;28;20033;-47
2023/04/30 00:33:14;;;;;;;34.80;17.83;;;;;;;8.43;100.00;102330.84;5051916;28;20025;-44
2023/04/30 00:35:40;;;;;;;35.83;17.98;;;;;;;8.45;100.00;102328.88;5058014;28;20024;-45
2023/04/30 00:38:05;;;;;;;40.00;18.38;;;;;;;8.44;100.00;102332.53;5062103;28;20152;-45
2023/04/30 00:40:36;;;;;;;37.65;17.92;;;;;;;8.42;100.00;102333.63;5035491;28;20086;-46
2023/04/30 00:43:01;;;;;;;40.80;19.85;;;;;;;8.38;100.00;102338.41;5057597;28;20514;-47
2023/04/30 00:45:27;;;;;;;42.65;18.75;;;;;;;8.39;100.00;102328.50;5064059;28;20028;-47
2023/04/30 00:47:52;;;;;;;47.25;19.73;;;;;;;8.41;100.00;102332.81;5056801;28;20509;-47
2023/04/30 00:50:17;;;;;;;46.03;18.92;;;;;;;8.37;100.00;102328.63;5055873;28;20634;-45
2023/04/30 00:52:43;;;;;;;46.08;19.05;;;;;;;8.35;100.00;102335.97;5071155;28;20511;-47
2023/04/30 00:55:11;;;;;;;46.83;21.10;;;;;;;8.34;100.00;102334.25;5071409;28;20036;-45
2023/04/30 00:57:37;;;;;;;47.47;21.67;;;;;;;8.31;100.00;102331.84;5072679;28;20059;-44
2023/04/30 01:00:03;;;;;;;43.35;20.50;;;;;;;8.28;100.00;102335.63;5069814;28;20107;-47
2023/04/30 01:02:29;;;;;;;44.80;20.67;;;;;;;8.32;100.00;102338.91;5068432;28;20447;-46
2023/04/30 01:04:55;;;;;;;46.65;20.92;;;;;;;8.28;100.00;102338.31;5071437;28;20121;-43
2023/04/30 01:07:20;;;;;;;52.45;20.67;;;;;;;8.32;100.00;102338.91;5058601;28;20047;-48
2023/04/30 01:09:46;;;;;;;46.40;21.10;;;;;;;8.28;100.00;102337.47;5047949;28;20114;-44
2023/04/30 01:12:23;;;;;;;46.58;20.83;;;;;;;8.26;100.00;102334.06;5053751;28;20375;-45
2023/04/30 01:14:49;;;;;;;41.40;20.17;;;;;;;8.26;100.00;102340.28;5052959;28;20046;-50
2023/04/30 01:17:21;;;;;;;44.70;21.42;;;;;;;8.22;100.00;102346.06;5059002;28;20028;-44
2023/04/30 01:19:46;;;;;;;45.55;20.80;;;;;;;8.18;100.00;102348.13;5050449;28;20485;-48
2023/04/30 01:22:27;;;;;;;44.00;21.13;;;;;;;8.13;100.00;102340.47;5051740;28;20041;-45
2023/04/30 01:24:52;;;;;;;47.95;21.58;;;;;;;8.13;100.00;102345.81;5052004;28;20029;-47
2023/04/30 01:27:47;;;;;;;50.15;20.65;;;;;;;8.17;100.00;102354.47;5053362;28;20052;-46
2023/04/30 01:30:13;;;;;;;49.58;21.35;;;;;;;8.17;100.00;102351.78;5053674;28;20061;-49
2023/04/30 01:32:38;;;;;;;45.83;20.02;;;;;;;8.15;100.00;102348.38;5059853;28;20111;-46
2023/04/30 01:35:04;;;;;;;49.78;21.55;;;;;;;8.13;100.00;102351.19;5057010;28;20086;-44
2023/04/30 01:37:44;;;;;;;51.35;21.05;;;;;;;8.05;100.00;102352.81;5060470;28;20021;-45
2023/04/30 01:40:30;;;;;;;47.25;21.20;;;;;;;7.99;100.00;102347.97;5047883;28;20355;-46
2023/04/30 01:43:11;;;;;;;53.08;22.02;;;;;;;7.98;100.00;102347.13;5059960;28;20029;-44
2023/04/30 01:45:53;;;;;;;52.10;22.58;;;;;;;7.92;100.00;102342.25;5058701;28;20112;-45
2023/04/30 01:48:24;;;;;;;48.58;21.63;;;;;;;7.90;100.00;102350.44;5060114;28;20028;-44
2023/04/30 01:50:52;;;;;;;49.90;22.50;;;;;;;7.88;100.00;102349.72;5059067;28;20439;-46
2023/04/30 01:53:24;;;;;;;54.88;22.67;;;;;;;7.92;100.00;102342.25;5061974;28;20054;-46
2023/04/30 01:56:01;;;;;;;58.42;22.80;;;;;;;7.91;100.00;102343.25;5064119;28;20040;-46
2023/04/30 01:58:29;;;;;;;49.97;22.77;;;;;;;7.94;100.00;102345.66;5050229;28;20035;-48
2023/04/30 02:00:54;;;;;;;52.63;20.92;;;;;;;7.93;100.00;102346.66;5049822;28;20451;-47
2023/04/30 02:03:19;;;;;;;53.20;23.05;;;;;;;7.99;100.00;102345.28;5054439;28;20051;-47
2023/04/30 02:05:46;;;;;;;53.45;22.13;;;;;;;7.97;100.00;102336.53;5057236;28;20090;-45
2023/04/30 02:08:11;;;;;;;50.28;22.83;;;;;;;7.89;100.00;102345.19;5064137;28;20055;-50
2023/04/30 02:10:36;;;;;;;46.63;21.27;;;;;;;7.83;100.00;102346.56;5065150;28;20040;-45
2023/04/30 02:13:02;;;;;;;54.63;22.17;;;;;;;7.82;100.00;102352.91;5051368;28;20049;-47
2023/04/30 02:15:27;;;;;;;49.33;21.83;;;;;;;7.76;100.00;102347.19;5051019;28;20126;-46
2023/04/30 02:17:52;;;;;;;59.80;23.52;;;;;;;7.74;100.00;102343.78;5050892;28;20104;-42
2023/04/30 02:20:19;;;;;;;56.53;23.92;;;;;;;7.67;100.00;102349.66;5053259;28;20052;-45
2023/04/30 02:22:44;;;;;;;59.08;23.13;;;;;;;7.63;100.00;102345.50;5054484;28;20128;-46
2023/04/30 02:25:11;;;;;;;56.30;23.88;;;;;;;7.64;100.00;102336.53;5069274;28;20028;-44
2023/04/30 02:27:37;;;;;;;56.78;24.23;;;;;;;7.74;100.00;102344.66;5056977;28;20511;-45
2023/04/30 02:30:03;;;;;;;61.40;24.55;;;;;;;7.66;100.00;102339.94;5051136;28;20027;-45
2023/04/30 02:32:28;;;;;;;52.38;22.63;;;;;;;7.59;100.00;102335.19;5059809;28;20126;-47
2023/04/30 02:34:54;;;;;;;57.28;24.65;;;;;;;7.59;100.00;102337.88;5059431;28;20021;-46
2023/04/30 02:37:19;;;;;;;53.92;22.95;;;;;;;7.61;100.00;102338.59;5068007;28;20024;-43
2023/04/30 02:39:45;;;;;;;63.28;24.48;;;;;;;7.57;100.00;102343.34;5055470;28;20029;-45
2023/04/30 02:42:11;;;;;;;57.80;23.20;;;;;;;7.61;100.00;102341.25;5053431;28;20104;-44
2023/04/30 02:44:36;;;;;;;58.15;22.80;;;;;;;7.59;100.00;102348.59;5055256;28;20033;-47
2023/04/30 02:47:02;;;;;;;57.55;21.58;;;;;;;7.69;100.00;102347.72;5053946;28;20032;-42
2023/04/30 02:49:27;;;;;;;46.85;21.77;;;;;;;7.66;100.00;102344.41;5053514;28;20026;-49
2023/04/30 02:51:53;;;;;;;50.20;21.20;;;;;;;7.67;100.00;102344.31;5066754;28;20060;-48
2023/04/30 02:54:19;;;;;;;49.97;21.13;;;;;;;7.72;100.00;102343.94;5073565;28;20131;-45
2023/04/30 02:56:45;;;;;;;52.90;23.48;;;;;;;7.71;100.00;102347.56;5075121;28;20031;-45
2023/04/30 02:59:10;;;;;;;63.17;23.13;;;;;;;7.68;100.00;102346.00;5074685;28;20486;-47
2023/04/30 03:01:35;;;;;;;54.40;21.30;;;;;;;7.55;100.00;102353.34;5067364;28;20108;-46
2023/04/30 03:04:03;;;;;;;59.00;23.00;;;;;;;7.62;100.00;102351.88;5053503;28;20112;-46
2023/04/30 03:06:30;;;;;;;63.60;23.52;;;;;;;7.61;100.00;102354.66;5053454;28;20033;-46
2023/04/30 03:08:55;;;;;;;62.20;22.67;;;;;;;7.60;100.00;102352.97;5063085;28;20112;-44
2023/04/30 03:11:20;;;;;;;60.08;24.70;;;;;;;7.56;100.00;102356.88;5066274;28;20135;-47
2023/04/30 03:13:50;;;;;;;54.38;22.65;;;;;;;7.47;100.00;102358.47;5058661;28;20025;-43
2023/04/30 03:16:16;;;;;;;60.80;23.67;;;;;;;7.42;100.00;102360.66;5065689;28;20067;-46
2023/04/30 03:18:41;;;;;;;58.40;22.20;;;;;;;7.42;100.00;102360.66;5062696;28;20053;-47
2023/04/30 03:21:06;;;;;;;55.97;22.38;;;;;;;7.49;100.00;102364.56;5063896;28;20112;-48
2023/04/30 03:23:32;;;;;;;59.78;22.45;;;;;;;7.46;100.00;102367.50;5055993;28;20033;-45
2023/04/30 03:25:57;;;;;;;58.83;24.08;;;;;;;7.46;100.00;102362.13;5064966;28;20214;-45
2023/04/30 03:28:23;;;;;;;55.70;23.73;;;;;;;7.46;100.00;102368.34;5073196;28;20039;-46
2023/04/30 03:30:48;;;;;;;53.25;22.60;;;;;;;7.45;100.00;102365.78;5069615;28;20501;-45
2023/04/30 03:33:13;;;;;;;55.97;22.27;;;;;;;7.49;100.00;102364.56;5054228;28;20029;-49
2023/04/30 03:35:39;;;;;;;59.40;23.40;;;;;;;7.48;100.00;102360.19;5054308;28;20056;-46
2023/04/30 03:38:04;;;;;;;59.13;23.83;;;;;;;7.47;100.00;102356.63;5055401;28;20433;-46
2023/04/30 03:40:29;;;;;;;55.88;23.02;;;;;;;7.43;100.00;102351.69;5054216;28;20112;-44
2023/04/30 03:42:55;;;;;;;53.33;22.92;;;;;;;7.36;100.00;102347.78;5064931;28;20023;-46
2023/04/30 03:45:20;;;;;;;62.47;24.20;;;;;;;7.28;100.00;102344.88;5066355;28;20040;-46
2023/04/30 03:47:46;;;;;;;64.53;24.42;;;;;;;7.22;100.00;102343.53;5053428;28;20049;-44
2023/04/30 03:50:11;;;;;;;75.78;25.58;;;;;;;7.16;100.00;102344.88;5066945;28;20090;-46
2023/04/30 03:52:37;;;;;;;61.45;24.42;;;;;;;7.17;100.00;102343.06;5071261;28;20044;-45
2023/04/30 03:55:03;;;;;;;52.85;22.60;;;;;;;7.18;100.00;102342.91;5072956;28;20058;-47
2023/04/30 03:57:28;;;;;;;56.80;25.02;;;;;;;7.20;100.00;102340.97;5071831;28;20029;-50
2023/04/30 03:59:54;;;;;;;64.05;23.73;;;;;;;7.21;100.00;102339.13;5065599;28;20655;-47
2023/04/30 04:02:20;;;;;;;61.55;24.58;;;;;;;7.23;100.00;102342.56;5065671;28;20048;-45
2023/04/30 04:04:46;;;;;;;50.88;21.95;;;;;;;7.26;100.00;102340.47;5070759;28;20043;-47
2023/04/30 04:07:11;;;;;;;61.33;23.05;;;;;;;7.28;100.00;102334.16;5072045;28;20804;-44
2023/04/30 04:09:36;;;;;;;54.15;22.42;;;;;;;7.33;100.00;102340.00;5057840;28;20057;-46
2023/04/30 04:12:02;;;;;;;50.58;21.40;;;;;;;7.32;100.00;102333.78;5052042;28;20475;-44
2023/04/30 04:14:27;;;;;;;63.78;23.30;;;;;;;7.26;100.00;102340.47;5052191;28;20114;-45
2023/04/30 04:16:52;;;;;;;57.75;21.85;;;;;;;7.22;100.00;102339.03;5059518;28;20094;-44
2023/04/30 04:19:18;;;;;;;53.25;22.20;;;;;;;7.20;100.00;102338.28;5050774;28;20039;-45
2023/04/30 04:21:43;;;;;;;60.97;23.75;;;;;;;7.21;100.00;102341.81;5057235;28;20021;-46
2023/04/30 04:24:09;;;;;;;56.60;22.42;;;;;;;7.19;100.00;102341.97;5051836;28;20548;-47
2023/04/30 04:26:36;;;;;;;59.33;22.92;;;;;;;7.21;100.00;102348.06;5054113;28;20032;-46
2023/04/30 04:29:03;;;;;;;58.33;22.08;;;;;;;7.23;100.00;102347.91;5052618;28;20043;-47
2023/04/30 04:31:28;;;;;;;52.67;21.55;;;;;;;7.21;100.00;102348.06;5056769;28;20077;-46
2023/04/30 04:33:57;;;;;;;57.72;23.00;;;;;;;7.21;100.00;102350.72;5050768;28;20040;-46
2023/04/30 04:36:24;;;;;;;63.00;22.80;;;;;;;7.20;100.00;102356.19;5058697;28;20036;-44
2023/04/30 04:38:49;;;;;;;60.72;22.58;;;;;;;7.25;100.00;102356.69;5052370;28;20068;-45
2023/04/30 04:41:15;;;;;;;52.92;22.48;;;;;;;7.19;100.00;102355.34;5055253;28;20375;-44
2023/04/30 04:43:41;;;;;;;65.63;23.33;;;;;;;7.15;100.00;102351.19;5063042;28;20032;-44
2023/04/30 04:46:08;;;;;;;66.00;23.77;;;;;;;7.15;100.00;102355.72;5058178;28;20044;-46
2023/04/30 04:48:33;;;;;;;59.67;24.15;;;;;;;7.12;100.00;102362.16;5050695;28;20053;-46
2023/04/30 04:50:58;;;;;;;60.63;23.67;;;;;;;7.17;100.00;102361.81;5053921;28;20068;-45
2023/04/30 04:53:24;;;;;;;64.72;22.52;;;;;;;7.18;100.00;102368.84;5071438;28;20059;-47
2023/04/30 04:55:49;;;;;;;59.15;25.23;;;;;;;7.14;100.00;102360.22;5066340;28;20087;-44
2023/04/30 04:58:15;;;;;;;61.50;24.98;;;;;;;7.25;100.00;102373.59;5051215;28;20037;-46
2023/04/30 05:00:40;;;;;;;65.28;25.52;;;;;;;7.34;100.00;102373.81;5050914;28;20421;-46
2023/04/30 05:03:05;;;;;;;64.88;25.33;;;;;;;7.47;100.00;102374.53;5067336;28;20032;-45
2023/04/30 05:05:31;;;;;;;55.35;24.08;;;;;;;7.55;100.00;102376.59;5071432;28;20032;-46
2023/04/30 05:07:56;;;;;;;62.53;24.42;;;;;;;7.67;100.00;102380.97;5069825;28;20036;-45
2023/04/30 05:10:21;;;;;;;59.45;21.42;;;;;;;7.67;100.00;102368.41;5067105;28;20059;-48
2023/04/30 05:12:47;;;;;;;71.70;23.73;;;;;;;7.76;100.00;102377.53;5068940;28;20063;-48
2023/04/30 05:15:12;;;;;;;56.80;21.73;;;;;;;7.85;100.00;102378.63;5071329;28;20017;-45
2023/04/30 05:17:37;;;;;;;58.53;21.27;;;;;;;7.91;100.00;102364.69;5069701;28;20102;-48
2023/04/30 05:20:06;;;;;;;50.88;20.63;;;;;;;7.90;100.00;102365.69;5069267;28;20040;-45
2023/04/30 05:22:31;;;;;;;;;;;;;;;7.99;100.00;102364.91;5058191;28;20094;-47
2023/04/30 05:24:56;;;;;;;51.10;22.90;;;;;;;7.97;100.00;102366.00;5058486;28;20296;-47
2023/04/30 05:27:21;;;;;;;52.75;19.88;;;;;;;8.01;100.00;102357.59;5053392;28;20749;-45
2023/04/30 05:29:47;;;;;;;52.08;20.45;;;;;;;8.03;100.00;102360.13;5051340;28;20060;-44
2023/04/30 05:32:12;;;;;;;53.65;20.10;;;;;;;8.06;100.00;102360.75;5051453;28;20029;-49
2023/04/30 05:34:37;;;;;;;45.65;19.02;;;;;;;8.06;100.00;102351.84;5051086;28;20478;-48
2023/04/30 05:37:03;;;;;;;47.35;19.27;;;;;;;8.24;100.00;102357.47;5067614;28;20044;-45
2023/04/30 05:39:28;;;;;;;48.70;18.92;;;;;;;8.29;100.00;102349.91;5055720;28;20056;-49
2023/04/30 05:41:54;;;;;;;41.30;18.17;;;;;;;8.27;100.00;102351.88;5059655;28;20033;-45
2023/04/30 05:44:19;;;;;;;46.70;18.42;;;;;;;8.35;100.00;102355.59;5055518;28;20039;-47
2023/04/30 05:46:44;;;;;;;41.38;18.10;;;;;;;8.67;100.00;102360.09;5041574;28;20463;-46
2023/04/30 05:49:10;;;;;;;41.58;17.17;;;;;;;8.94;100.00;102356.81;5051509;28;20111;-47
2023/04/30 05:51:35;;;;;;;40.90;18.13;;;;;;;9.35;100.00;102357.72;5056699;28;20124;-46
2023/04/30 05:54:00;;;;;;;33.80;15.93;;;;;;;9.97;100.00;102350.28;5059041;28;20095;-47
2023/04/30 05:56:26;;;;;;;32.92;13.38;;;;;;;10.88;100.00;102344.53;5069218;28;20013;-46
2023/04/30 05:58:51;;;;;;;32.47;14.02;;;;;;;12.05;100.00;102334.75;5053760;28;20029;-46
2023/04/30 06:01:19;;;;;;;27.00;13.18;;;;;;;13.34;100.00;102326.81;5057291;28;20037;-46
2023/04/30 06:03:44;;;;;;;23.90;11.70;;;;;;;14.02;100.00;102319.50;5050170;28;20041;-47
2023/04/30 06:06:09;;;;;;;31.80;11.88;;;;;;;14.56;100.00;102314.44;5052200;28;20435;-49
2023/04/30 06:08:35;;;;;;;25.48;11.85;;;;;;;15.04;100.00;102315.31;5053713;28;20108;-47
2023/04/30 06:11:02;;;;;;;23.95;10.75;;;;;;;15.79;100.00;102311.19;5068600;28;20482;-46
2023/04/30 06:13:27;;;;;;;18.38;10.52;;;;;;;15.33;99.51;102314.66;5063768;28;20041;-46
2023/04/30 06:15:53;;;;;;;21.42;10.07;;;;;;;15.10;100.00;102317.28;5068731;28;20085;-47
2023/04/30 06:18:19;;;;;;;22.90;10.23;;;;;;;14.64;100.00;102324.38;5061137;28;20036;-44
2023/04/30 06:20:45;;;;;;;20.20;9.63;;;;;;;14.58;100.00;102320.50;5049162;28;20136;-47
2023/04/30 06:23:10;;;;;;;22.35;9.68;;;;;;;14.62;100.00;102321.88;5061408;28;20047;-47
2023/04/30 06:25:36;;;;;;;20.20;9.88;;;;;;;15.25;100.00;102325.56;5065912;28;21049;-47
2023/04/30 06:28:01;;;;;;;15.50;9.07;;;;;;;15.65;99.93;102330.94;5048368;28;20090;-47
2023/04/30 06:30:26;;;;;;;17.42;9.15;;;;;;;16.16;96.01;102332.09;5046465;28;20036;-49
2023/04/30 06:32:52;;;;;;;16.58;8.98;;;;;;;16.40;94.10;102317.47;5054249;28;20068;-45
2023/04/30 06:35:17;;;;;;;22.10;9.20;;;;;;;16.67;92.03;102323.31;5055810;28;20028;-45
2023/04/30 06:37:43;;;;;;;19.42;8.32;;;;;;;16.55;89.56;102316.66;5057556;28;20085;-46
2023/04/30 06:40:08;;;;;;;15.95;8.55;;;;;;;17.22;89.76;102321.16;5060569;28;20502;-49
2023/04/30 06:42:34;;;;;;;19.55;8.35;;;;;;;17.66;86.55;102317.50;5060749;28;20036;-48
2023/04/30 06:45:05;;;;;;;13.50;7.82;;;;;;;17.65;84.40;102319.38;5059998;28;20041;-46
2023/04/30 06:47:35;;;;;;;14.50;8.13;;;;;;;17.77;85.51;102319.69;5056446;28;20044;-45
2023/04/30 06:50:01;;;;;;;15.18;7.25;;;;;;;18.17;84.68;102326.41;5059351;28;20215;-44
2023/04/30 06:52:27;;;;;;;15.45;8.27;;;;;;;18.67;81.94;102320.06;5060983;28;20056;-46
2023/04/30 06:54:52;;;;;;;12.70;7.78;;;;;;;19.41;76.43;102328.47;5056763;28;20155;-46
2023/04/30 06:57:18;;;;;;;15.05;8.02;;;;;;;19.19;75.98;102329.63;5058159;28;20031;-47
2023/04/30 06:59:43;;;;;;;17.73;7.68;;;;;;;19.36;74.86;102330.13;5057251;28;20065;-46
2023/04/30 07:02:10;;;;;;;14.82;7.30;;;;;;;19.06;77.89;102324.94;5061103;28;20035;-47
2023/04/30 07:04:36;;;;;;;12.63;7.80;;;;;;;18.25;77.34;102322.72;5058180;28;20032;-46
2023/04/30 07:07:01;;;;;;;11.93;7.47;;;;;;;18.82;79.29;102326.28;5057211;28;20033;-47
2023/04/30 07:09:28;;;;;;;12.88;7.43;;;;;;;20.19;73.45;102330.75;5057901;28;20033;-46
2023/04/30 07:11:53;;;;;;;13.68;6.82;;;;;;;20.58;70.06;102331.81;5060206;28;20071;-45
2023/04/30 07:14:20;;;;;;;12.30;7.05;;;;;;;20.20;69.40;102326.13;5057982;28;20142;-45
2023/04/30 07:16:45;;;;;;;12.30;6.65;;;;;;;19.90;70.71;102338.28;5059286;28;20027;-47
2023/04/30 07:19:10;;;;;;;12.57;6.88;;;;;;;19.94;70.34;102341.47;5059950;28;20029;-48
2023/04/30 07:21:36;;;;;;;13.60;7.03;;;;;;;19.48;70.85;102344.88;5049506;28;20112;-46
2023/04/30 07:24:01;;;;;;;11.50;6.60;;;;;;;19.04;72.77;102343.44;5050754;28;20103;-45
2023/04/30 07:26:26;;;;;;;11.90;6.60;;;;;;;19.28;74.61;102337.44;5055181;28;20083;-45
2023/04/30 07:28:52;;;;;;;11.55;7.00;;;;;;;19.87;72.34;102340.59;5055013;28;20497;-47
2023/04/30 07:31:18;;;;;;;11.55;6.82;;;;;;;19.59;71.07;102346.16;5055732;28;20363;-45
2023/04/30 07:33:43;;;;;;;12.23;7.03;;;;;;;20.25;69.65;102335.38;5063251;28;20435;-46
2023/04/30 07:36:10;;;;;;;12.07;6.85;;;;;;;19.93;69.18;102335.16;5067796;28;20041;-46
2023/04/30 07:38:35;;;;;;;11.45;6.57;;;;;;;20.07;69.45;102340.63;5052862;28;20451;-48
2023/04/30 07:41:01;;;;;;;11.82;6.53;;;;;;;20.32;69.80;102338.94;5064755;28;20070;-45
2023/04/30 07:43:27;;;;;;;12.55;7.18;;;;;;;20.22;66.82;102341.28;5063701;28;20033;-46
2023/04/30 07:45:53;;;;;;;8.75;6.38;;;;;;;19.85;69.90;102329.91;5052554;28;20093;-46
2023/04/30 07:48:19;;;;;;;13.32;8.20;;;;;;;19.67;71.01;102343.31;5055315;28;20032;-46
2023/04/30 07:50:47;;;;;;;12.55;6.20;;;;;;;20.67;68.61;102333.28;5058085;28;20033;-46
2023/04/30 07:53:12;;;;;;;12.52;6.65;;;;;;;20.64;68.44;102333.69;5052185;28;20049;-48
2023/04/30 07:55:37;;;;;;;9.00;6.20;;;;;;;21.56;65.10;102328.97;5052719;28;20114;-48
2023/04/30 07:58:03;;;;;;;11.77;6.35;;;;;;;21.96;61.88;102336.97;5052574;28;20134;-46
2023/04/30 08:00:29;;;;;;;8.38;5.75;;;;;;;21.76;63.53;102341.75;5052426;28;20114;-45
2023/04/30 08:02:55;;;;;;;12.27;7.00;;;;;;;21.64;64.26;102328.75;5055221;28;20056;-45
2023/04/30 08:05:20;;;;;;;10.85;6.68;;;;;;;21.11;64.89;102337.16;5058296;28;20772;-50
2023/04/30 08:07:46;;;;;;;10.82;6.85;;;;;;;20.81;64.87;102334.94;5068629;28;20113;-45
2023/04/30 08:10:11;;;;;;;8.00;5.18;;;;;;;21.97;62.17;102335.91;5069517;28;20063;-46
2023/04/30 08:12:37;;;;;;;7.32;5.80;;;;;;;22.59;61.09;102338.78;5067111;28;20025;-50
2023/04/30 08:15:04;;;;;;;12.43;6.38;;;;;;;22.50;59.96;102337.41;5065891;28;20029;-49
2023/04/30 08:17:30;;;;;;;12.43;6.93;;;;;;;20.65;63.85;102340.88;5071293;28;20135;-47
2023/04/30 08:19:55;;;;;;;8.60;6.05;;;;;;;20.82;63.99;102336.59;5072328;28;20390;-48
2023/04/30 08:22:21;;;;;;;8.90;6.10;;;;;;;21.77;61.87;102333.28;5069930;28;20037;-50
2023/04/30 08:24:47;;;;;;;9.10;5.60;;;;;;;21.19;65.13;102322.38;5051174;28;20032;-50
2023/04/30 08:27:12;;;;;;;7.32;5.40;;;;;;;22.43;61.01;102331.13;5067089;28;20028;-47
2023/04/30 08:29:37;;;;;;;8.55;5.47;;;;;;;22.66;59.63;102336.81;5072267;28;20075;-48
2023/04/30 08:32:04;;;;;;;10.50;5.22;;;;;;;23.13;59.92;102333.59;5072313;28;20028;-47
2023/04/30 08:34:30;;;;;;;10.47;5.67;;;;;;;22.98;57.16;102325.75;5055286;28;20502;-48
2023/04/30 08:36:55;;;;;;;7.68;6.05;;;;;;;22.84;57.06;102333.25;5051442;28;20090;-47
2023/04/30 08:39:20;;;;;;;6.82;5.05;;;;;;;22.22;59.55;102335.09;5052098;28;20041;-46
2023/04/30 08:41:55;;;;;;;8.35;5.07;;;;;;;22.88;57.44;102336.38;5063590;28;20020;-46
2023/04/30 08:44:22;;;;;;;11.45;5.43;;;;;;;22.39;57.87;102338.97;5069901;28;20025;-45
2023/04/30 08:46:52;;;;;;;5.95;4.82;;;;;;;23.62;55.24;102337.19;5070151;28;20119;-46
2023/04/30 08:49:18;;;;;;;6.85;4.93;;;;;;;23.79;53.40;102334.66;5070149;28;20044;-44
2023/04/30 08:51:45;;;;;;;6.28;4.95;;;;;;;24.24;53.14;102337.72;5069575;28;20060;-46
2023/04/30 08:54:11;;;;;;;7.72;4.97;;;;;;;23.56;53.85;102340.84;5071560;28;20067;-45
2023/04/30 08:56:38;;;;;;;7.97;5.78;;;;;;;23.74;53.23;102332.59;5071586;28;20097;-46
2023/04/30 08:59:03;;;;;;;8.68;5.07;;;;;;;23.06;53.40;102330.09;5071228;28;20387;-49
2023/04/30 09:01:29;;;;;;;9.35;5.55;;;;;;;22.50;55.17;102338.22;5071330;28;20041;-45
2023/04/30 09:03:56;;;;;;;7.05;4.93;;;;;;;22.74;57.23;102328.28;5071674;28;20113;-46
2023/04/30 09:06:22;;;;;;;5.97;4.30;;;;;;;23.58;55.48;102330.47;5069222;28;20028;-44
2023/04/30 09:08:48;;;;;;;6.90;4.90;;;;;;;24.02;52.02;102323.72;5069163;28;20036;-48
2023/04/30 09:11:21;;;;;;;6.05;4.95;;;;;;;23.21;54.28;102325.88;5070611;28;20025;-47
2023/04/30 09:13:49;;;;;;;5.72;4.43;;;;;;;23.39;53.53;102327.75;5070585;28;20360;-48
2023/04/30 09:16:14;;;;;;;8.80;5.05;;;;;;;22.36;56.13;102322.97;5068811;28;20540;-48
2023/04/30 09:18:40;;;;;;;5.78;4.03;;;;;;;23.48;53.95;102322.78;5069737;28;20045;-49
2023/04/30 09:21:07;;;;;;;5.10;3.78;;;;;;;24.39;52.76;102328.19;5070660;28;20390;-48
2023/04/30 09:23:33;;;;;;;5.88;4.30;;;;;;;25.13;49.83;102334.84;5070409;28;20451;-49
2023/04/30 09:25:59;;;;;;;6.35;5.00;;;;;;;24.92;51.14;102325.28;5052908;28;20037;-48
2023/04/30 09:28:27;;;;;;;8.43;4.90;;;;;;;25.29;49.79;102319.47;5069544;28;20020;-46
2023/04/30 09:30:55;;;;;;;7.90;4.82;;;;;;;25.04;48.39;102319.78;5070777;28;20055;-47
2023/04/30 09:33:21;;;;;;;5.80;4.35;;;;;;;25.36;48.29;102322.13;5070478;28;20393;-46
2023/04/30 09:35:46;;;;;;;5.50;4.82;;;;;;;23.40;50.57;102321.19;5070912;28;20034;-49
2023/04/30 09:38:44;;;;;;;7.38;4.70;;;;;;;23.35;51.95;102318.28;5069353;28;20028;-49
2023/04/30 09:41:29;;;;;;;6.95;5.05;;;;;;;23.36;51.16;102314.50;5068906;28;20059;-46
2023/04/30 09:43:56;;;;;;;4.90;3.83;;;;;;;23.84;53.09;102310.88;5070028;28;20437;-49
2023/04/30 09:46:29;;;;;;;5.93;4.45;;;;;;;24.87;50.42;102314.16;5068499;28;20029;-49
2023/04/30 09:48:57;;;;;;;5.65;3.67;;;;;;;25.09;50.25;102313.53;5066553;28;20032;-45
2023/04/30 09:51:22;;;;;;;9.63;4.07;;;;;;;25.31;49.52;102316.50;5069200;28;20024;-48
2023/04/30 09:53:48;;;;;;;7.65;4.65;;;;;;;25.01;47.26;102313.91;5070390;28;20429;-49
2023/04/30 09:56:19;;;;;;;6.40;3.83;;;;;;;25.28;48.02;102309.56;5069373;28;20040;-47
2023/04/30 09:58:49;;;;;;;6.53;4.15;;;;;;;25.31;47.80;102305.47;5068648;28;20178;-47
2023/04/30 10:01:16;;;;;;;4.82;4.25;;;;;;;25.02;49.14;102302.66;5070295;28;20094;-48
2023/04/30 10:03:42;;;;;;;5.20;4.22;;;;;;;25.56;47.41;102302.34;5052037;28;20028;-49
2023/04/30 10:06:11;;;;;;;5.57;4.13;;;;;;;25.19;45.74;102308.25;5068692;28;20039;-49
2023/04/30 10:08:42;;;;;;;5.13;3.83;;;;;;;24.63;47.02;102305.09;5068563;28;20038;-50
2023/04/30 10:11:08;;;;;;;5.80;3.72;;;;;;;25.00;47.71;102299.28;5070056;28;20059;-47
2023/04/30 10:13:41;;;;;;;6.82;3.80;;;;;;;25.09;47.43;102295.09;5070069;28;20361;-49
2023/04/30 10:16:17;;;;;;;7.15;3.85;;;;;;;24.83;47.46;102295.63;5068246;28;20668;-48
2023/04/30 10:18:44;;;;;;;7.07;3.03;;;;;;;25.67;45.88;102292.34;5068403;28;20066;-46
2023/04/30 10:21:12;;;;;;;4.38;2.80;;;;;;;25.79;45.20;102293.97;5068720;28;20082;-47
2023/04/30 10:23:38;;;;;;;3.05;2.47;;;;;;;25.65;45.12;102289.84;5070225;28;20020;-47
2023/04/30 10:26:04;;;;;;;5.43;2.65;;;;;;;25.49;46.57;102287.88;5070143;28;20047;-49
2023/04/30 10:28:31;;;;;;;5.60;3.40;;;;;;;25.35;48.35;102282.66;5051712;28;20021;-49
2023/04/30 10:30:56;;;;;;;;;;;;;;;24.93;45.77;102287.56;5068545;28;20028;-47
2023/04/30 10:33:28;;;;;;;3.28;3.05;;;;;;;24.92;45.70;102289.50;5067877;28;19954;-47
2023/04/30 10:35:59;;;;;;;4.55;3.35;;;;;;;24.58;47.23;102282.97;5068444;28;20038;-48
2023/04/30 10:38:27;;;;;;;3.95;2.63;;;;;;;25.26;46.00;102283.31;5067592;28;20023;-45
2023/04/30 10:41:00;;;;;;;3.05;2.42;;;;;;;25.83;44.05;102283.28;5051084;28;20046;-49
2023/04/30 10:43:27;;;;;;;5.88;3.25;;;;;;;25.26;43.92;102277.81;5066869;28;20044;-46
2023/04/30 10:45:52;;;;;;;4.03;2.58;;;;;;;24.73;46.34;102275.06;5067935;28;20056;-48
2023/04/30 10:48:24;;;;;;;5.07;2.88;;;;;;;25.03;45.40;102279.53;5065872;28;20060;-45
2023/04/30 10:50:54;;;;;;;3.60;2.80;;;;;;;23.57;45.75;102277.44;5068438;28;20025;-45
2023/04/30 10:53:21;;;;;;;4.28;2.58;;;;;;;23.20;46.51;102254.72;5068699;28;20517;-47
2023/04/30 10:56:07;;;;;;;23.17;3.08;;;;;;;24.51;46.83;102251.97;5069448;28;20043;-47
2023/04/30 10:58:34;;;;;;;3.53;2.65;;;;;;;24.63;45.50;102250.06;5070137;28;20035;-45
2023/04/30 11:01:07;;;;;;;3.03;2.72;;;;;;;23.77;43.93;102252.38;5069739;28;20029;-49
2023/04/30 11:03:34;;;;;;;3.38;2.80;;;;;;;23.69;46.70;102247.22;5071964;28;20116;-45
2023/04/30 11:06:03;;;;;;;2.42;2.20;;;;;;;24.97;44.55;102241.94;5071787;28;20032;-47
2023/04/30 11:08:33;;;;;;;4.82;2.03;;;;;;;25.37;43.90;102238.34;5073382;28;20107;-45
2023/04/30 11:11:00;;;;;;;2.47;1.90;;;;;;;24.97;44.25;102230.94;5073097;28;20033;-45
2023/04/30 11:13:26;;;;;;;2.72;2.38;;;;;;;24.88;45.13;102226.88;5072913;28;20471;-46